Time;durP1;ratioP1;P1;durP2;ratioP2;P2;SDS_P1;SDS_P2;PMS_P1;PMS_P2;Temp;Humidity;BMP_temperature;BMP_pressure;BME280_temperature;BME280_humidity;BME280_pressure;Samples;Min_cycle;Max_cycle;Signal;HPM_P1;HPM_P2
2022/03/30 00:01:57;;;;;;;;;;;23.80;29.70;;;;;;4818642;29;19964;-65
2022/03/30 00:04:24;;;;;;;;;;;23.80;29.70;;;;;;4818479;29;20020;-65
2022/03/30 00:06:51;;;;;;;;;;;23.70;29.70;;;;;;4818616;29;19980;-65
2022/03/30 00:09:18;;;;;;;;;;;23.80;29.70;;;;;;4814309;29;19928;-65
2022/03/30 00:11:45;;;;;;;;;;;23.70;29.70;;;;;;4818541;29;20035;-65
2022/03/30 00:14:12;;;;;;;;;;;23.70;29.70;;;;;;4818174;29;19928;-65
2022/03/30 00:16:40;;;;;;;;;;;23.70;29.70;;;;;;4818995;29;19928;-65
2022/03/30 00:19:07;;;;;;;;;;;23.70;29.70;;;;;;4818537;29;19929;-66
2022/03/30 00:21:34;;;;;;;;;;;23.70;29.70;;;;;;4818393;29;20023;-65
2022/03/30 00:24:01;;;;;;;;;;;23.70;29.70;;;;;;4818563;29;19933;-65
2022/03/30 00:26:28;;;;;;;;;;;23.70;29.70;;;;;;4818697;29;19928;-65
2022/03/30 00:28:55;;;;;;;;;;;23.70;29.70;;;;;;4818317;29;19976;-65
2022/03/30 00:31:22;;;;;;;;;;;23.70;29.70;;;;;;4818185;29;20443;-65
2022/03/30 00:33:51;;;;;;;;;;;23.70;29.70;;;;;;4818455;29;19929;-65
2022/03/30 00:36:19;;;;;;;;;;;23.60;29.70;;;;;;4818109;29;20023;-66
2022/03/30 00:38:46;;;;;;;;;;;23.60;29.80;;;;;;4818060;29;19972;-65
2022/03/30 00:41:13;;;;;;;;;;;23.60;29.70;;;;;;4814135;29;19928;-66
2022/03/30 00:43:39;;;;;;;;;;;23.60;29.80;;;;;;4816142;29;20113;-65
2022/03/30 00:46:09;;;;;;;;;;;23.60;29.80;;;;;;4799809;29;19935;-65
2022/03/30 00:48:36;;;;;;;;;;;23.60;29.80;;;;;;4800258;29;19933;-65
2022/03/30 00:51:03;;;;;;;;;;;23.60;29.80;;;;;;4800538;29;20391;-65
2022/03/30 00:53:30;;;;;;;;;;;23.60;29.80;;;;;;4800195;29;19968;-65
2022/03/30 00:55:57;;;;;;;;;;;23.60;29.80;;;;;;4799866;29;19951;-65
2022/03/30 00:58:25;;;;;;;;;;;23.60;29.80;;;;;;4803339;29;20403;-65
2022/03/30 01:00:52;;;;;;;;;;;23.60;29.80;;;;;;4803285;29;19983;-65
2022/03/30 01:03:20;;;;;;;;;;;23.60;29.80;;;;;;4803037;29;19963;-65
2022/03/30 01:05:47;;;;;;;;;;;23.60;29.80;;;;;;4803863;29;20380;-65
2022/03/30 01:08:14;;;;;;;;;;;23.60;29.80;;;;;;4803689;29;19935;-66
2022/03/30 01:10:41;;;;;;;;;;;23.60;29.90;;;;;;4802642;29;20246;-65
2022/03/30 01:13:08;;;;;;;;;;;23.60;29.80;;;;;;4799441;29;20070;-65
2022/03/30 01:15:37;;;;;;;;;;;23.60;29.80;;;;;;4803131;29;20658;-65
2022/03/30 01:18:04;;;;;;;;;;;23.60;29.80;;;;;;4803532;29;20006;-65
2022/03/30 01:20:32;;;;;;;;;;;23.60;29.80;;;;;;4816354;29;20401;-65
2022/03/30 01:23:00;;;;;;;;;;;23.60;29.80;;;;;;4803341;29;19929;-65
2022/03/30 01:25:27;;;;;;;;;;;23.60;29.80;;;;;;4803070;29;20011;-65
2022/03/30 01:27:55;;;;;;;;;;;23.60;29.80;;;;;;4802981;29;19929;-65
2022/03/30 01:33:08;;;;;;;;;;;23.60;29.80;;;;;;4802782;29;19982;-65
2022/03/30 01:35:36;;;;;;;;;;;23.60;29.80;;;;;;4802971;29;19940;-65
2022/03/30 01:38:03;;;;;;;;;;;23.60;29.80;;;;;;4803172;29;20011;-66
2022/03/30 01:40:30;;;;;;;;;;;23.60;29.80;;;;;;4802882;29;19989;-66
2022/03/30 01:42:57;;;;;;;;;;;23.60;29.80;;;;;;4799578;29;19929;-65
2022/03/30 01:45:25;;;;;;;;;;;23.60;29.80;;;;;;4802441;29;19929;-65
2022/03/30 01:47:57;;;;;;;;;;;23.50;29.80;;;;;;4803359;29;19933;-65
2022/03/30 01:50:25;;;;;;;;;;;23.50;29.80;;;;;;4802436;29;20216;-65
2022/03/30 01:52:52;;;;;;;;;;;23.60;29.90;;;;;;4802443;29;19982;-65
2022/03/30 01:55:19;;;;;;;;;;;23.50;29.80;;;;;;4802958;29;20228;-65
2022/03/30 01:57:46;;;;;;;;;;;23.50;29.80;;;;;;4802328;29;20007;-65
2022/03/30 02:00:15;;;;;;;;;;;23.50;29.80;;;;;;4801514;29;19951;-65
2022/03/30 02:02:42;;;;;;;;;;;23.50;29.80;;;;;;4802256;29;19943;-66
2022/03/30 02:05:10;;;;;;;;;;;23.50;29.80;;;;;;4802530;29;20243;-65
2022/03/30 02:07:37;;;;;;;;;;;23.60;29.90;;;;;;4802445;29;19990;-65
2022/03/30 02:10:06;;;;;;;;;;;23.50;29.80;;;;;;4802299;29;20036;-65
2022/03/30 02:12:33;;;;;;;;;;;23.50;29.90;;;;;;4802425;29;19929;-65
2022/03/30 02:15:00;;;;;;;;;;;23.50;29.90;;;;;;4797718;29;20355;-66
2022/03/30 02:17:27;;;;;;;;;;;23.50;29.90;;;;;;4802706;29;19935;-65
2022/03/30 02:19:55;;;;;;;;;;;23.50;29.90;;;;;;4802250;29;19986;-65
2022/03/30 02:22:22;;;;;;;;;;;23.50;29.90;;;;;;4801944;29;19984;-65
2022/03/30 02:24:52;;;;;;;;;;;23.50;29.90;;;;;;4802092;29;19936;-65
2022/03/30 02:27:19;;;;;;;;;;;23.50;29.90;;;;;;4801750;29;20360;-65
2022/03/30 02:29:47;;;;;;;;;;;23.50;30.00;;;;;;4802644;29;19933;-66
2022/03/30 02:32:17;;;;;;;;;;;23.40;30.00;;;;;;4815226;29;19976;-65
2022/03/30 02:34:44;;;;;;;;;;;23.40;30.00;;;;;;4802371;29;20426;-65
2022/03/30 02:37:12;;;;;;;;;;;23.50;30.00;;;;;;4800573;29;19983;-65
2022/03/30 02:39:39;;;;;;;;;;;23.40;30.40;;;;;;4801451;29;20219;-65
2022/03/30 02:42:07;;;;;;;;;;;23.40;30.00;;;;;;4801883;29;20294;-65
2022/03/30 02:44:34;;;;;;;;;;;23.40;30.00;;;;;;4801734;29;19951;-66
2022/03/30 02:47:02;;;;;;;;;;;23.50;30.00;;;;;;4796527;29;20053;-65
2022/03/30 02:49:29;;;;;;;;;;;23.40;30.00;;;;;;4801925;29;20020;-68
2022/03/30 02:51:56;;;;;;;;;;;23.40;30.00;;;;;;4801408;29;19937;-65
2022/03/30 02:54:27;;;;;;;;;;;23.40;30.00;;;;;;4802085;29;19929;-65
2022/03/30 02:56:54;;;;;;;;;;;23.40;30.00;;;;;;4801369;29;19968;-66
2022/03/30 02:59:21;;;;;;;;;;;23.40;30.00;;;;;;4801867;29;20011;-65
2022/03/30 03:01:48;;;;;;;;;;;23.50;30.00;;;;;;4801142;29;19929;-65
2022/03/30 03:04:15;;;;;;;;;;;23.40;30.00;;;;;;4800947;29;19991;-65
2022/03/30 03:06:42;;;;;;;;;;;23.40;30.00;;;;;;4802056;29;19933;-65
2022/03/30 03:09:09;;;;;;;;;;;23.40;30.00;;;;;;4801411;29;19968;-66
2022/03/30 03:11:36;;;;;;;;;;;23.40;30.00;;;;;;4801536;29;19932;-65
2022/03/30 03:14:05;;;;;;;;;;;23.40;30.00;;;;;;4801360;29;20048;-65
2022/03/30 03:16:33;;;;;;;;;;;23.40;30.00;;;;;;4801518;29;20176;-65
2022/03/30 03:19:00;;;;;;;;;;;23.40;30.00;;;;;;4796810;29;19929;-65
2022/03/30 03:21:27;;;;;;;;;;;23.40;30.00;;;;;;4800741;29;19969;-65
2022/03/30 03:23:54;;;;;;;;;;;23.40;30.00;;;;;;4801921;29;20011;-65
2022/03/30 03:26:21;;;;;;;;;;;23.40;30.00;;;;;;4800798;29;19961;-65
2022/03/30 03:28:48;;;;;;;;;;;23.40;30.00;;;;;;4801135;29;19979;-65
2022/03/30 03:31:15;;;;;;;;;;;23.40;30.00;;;;;;4795942;29;20393;-65
2022/03/30 03:33:42;;;;;;;;;;;23.40;30.00;;;;;;4787722;29;19933;-66
2022/03/30 03:36:09;;;;;;;;;;;23.40;30.00;;;;;;4799973;29;20457;-65
2022/03/30 03:38:36;;;;;;;;;;;23.40;30.00;;;;;;4790181;29;19999;-65
2022/03/30 03:41:03;;;;;;;;;;;23.40;30.00;;;;;;4791480;29;19929;-65
2022/03/30 03:43:30;;;;;;;;;;;23.50;30.00;;;;;;4782682;29;20366;-65
2022/03/30 03:45:57;;;;;;;;;;;23.50;30.00;;;;;;4794129;29;20002;-65
2022/03/30 03:48:24;;;;;;;;;;;23.50;30.00;;;;;;4798793;29;19986;-65
2022/03/30 03:50:51;;;;;;;;;;;23.50;30.00;;;;;;4791173;29;19933;-65
2022/03/30 03:53:18;;;;;;;;;;;23.50;30.00;;;;;;4793924;29;19978;-66
2022/03/30 03:55:45;;;;;;;;;;;23.50;30.30;;;;;;4787874;29;20411;-66
2022/03/30 03:58:13;;;;;;;;;;;23.40;29.90;;;;;;4791640;29;19937;-65
2022/03/30 04:00:40;;;;;;;;;;;23.50;29.90;;;;;;4795948;29;20024;-65
2022/03/30 04:03:07;;;;;;;;;;;23.50;29.90;;;;;;4798031;29;20028;-65
2022/03/30 04:05:35;;;;;;;;;;;23.50;29.90;;;;;;4799886;29;19954;-65
2022/03/30 04:08:02;;;;;;;;;;;23.50;29.90;;;;;;4799157;29;20445;-65
2022/03/30 04:10:29;;;;;;;;;;;23.50;29.90;;;;;;4799773;29;20192;-65
2022/03/30 04:12:56;;;;;;;;;;;23.50;29.90;;;;;;4797895;29;20352;-65
2022/03/30 04:15:23;;;;;;;;;;;23.50;29.90;;;;;;4799088;29;19933;-65
2022/03/30 04:17:50;;;;;;;;;;;23.50;29.90;;;;;;4798041;29;20391;-65
2022/03/30 04:20:18;;;;;;;;;;;23.50;29.90;;;;;;4795782;29;19979;-66
2022/03/30 04:22:44;;;;;;;;;;;23.50;29.90;;;;;;4795000;29;19937;-65
2022/03/30 04:25:12;;;;;;;;;;;23.50;29.80;;;;;;4797784;29;20028;-65
2022/03/30 04:27:46;;;;;;;;;;;23.60;29.90;;;;;;4797266;29;19966;-65
2022/03/30 04:30:14;;;;;;;;;;;23.60;29.90;;;;;;4796241;29;19976;-65
2022/03/30 04:32:42;;;;;;;;;;;23.60;29.90;;;;;;4796495;29;20012;-65
2022/03/30 04:35:11;;;;;;;;;;;23.60;29.90;;;;;;4795766;29;19980;-65
2022/03/30 04:37:39;;;;;;;;;;;23.60;29.90;;;;;;4791471;29;20039;-65
2022/03/30 04:40:06;;;;;;;;;;;23.50;29.80;;;;;;4793033;29;20564;-65
2022/03/30 04:42:33;;;;;;;;;;;23.60;29.90;;;;;;4802169;29;20028;-65
2022/03/30 04:45:00;;;;;;;;;;;23.60;29.90;;;;;;4806261;29;19963;-65
2022/03/30 04:47:28;;;;;;;;;;;23.60;29.90;;;;;;4808252;29;19971;-65
2022/03/30 04:49:55;;;;;;;;;;;23.60;29.80;;;;;;4789987;29;20036;-65
2022/03/30 04:52:21;;;;;;;;;;;23.60;29.80;;;;;;4787409;29;19933;-65
2022/03/30 04:54:48;;;;;;;;;;;23.60;29.80;;;;;;4790381;29;20005;-65
2022/03/30 04:57:15;;;;;;;;;;;23.60;29.80;;;;;;4789954;29;19994;-66
2022/03/30 04:59:43;;;;;;;;;;;23.60;29.80;;;;;;4795051;29;19988;-66
2022/03/30 05:02:10;;;;;;;;;;;23.60;29.80;;;;;;4796274;29;20004;-66
2022/03/30 05:04:37;;;;;;;;;;;23.60;29.80;;;;;;4797184;29;20004;-66
2022/03/30 05:07:04;;;;;;;;;;;23.60;29.90;;;;;;4797162;29;20383;-65
2022/03/30 05:09:31;;;;;;;;;;;23.60;29.80;;;;;;4794476;29;19933;-65
2022/03/30 05:11:58;;;;;;;;;;;23.60;29.80;;;;;;4790619;29;19972;-66
2022/03/30 05:14:25;;;;;;;;;;;23.60;29.80;;;;;;4797296;29;20016;-66
2022/03/30 05:16:51;;;;;;;;;;;23.60;29.80;;;;;;4794737;29;20029;-63
2022/03/30 05:19:19;;;;;;;;;;;23.60;29.80;;;;;;4794425;29;19933;-65
2022/03/30 05:21:46;;;;;;;;;;;23.60;29.80;;;;;;4792340;29;20145;-66
2022/03/30 05:24:13;;;;;;;;;;;23.60;29.80;;;;;;4782370;29;20269;-65
2022/03/30 05:26:40;;;;;;;;;;;23.60;29.70;;;;;;4786940;29;20035;-66
2022/03/30 05:29:07;;;;;;;;;;;23.70;29.80;;;;;;4787960;29;20418;-64
2022/03/30 05:31:35;;;;;;;;;;;23.70;29.80;;;;;;4809607;29;20357;-65
2022/03/30 05:34:02;;;;;;;;;;;23.80;30.10;;;;;;4792747;29;19933;-62
2022/03/30 05:36:30;;;;;;;;;;;23.80;30.70;;;;;;4787209;29;19994;-65
2022/03/30 05:38:56;;;;;;;;;;;23.90;30.90;;;;;;4790166;29;20008;-68
2022/03/30 05:41:24;;;;;;;;;;;23.90;30.80;;;;;;4794533;29;20052;-65
2022/03/30 05:43:51;;;;;;;;;;;24.00;30.70;;;;;;4788075;29;20013;-66
2022/03/30 05:46:18;;;;;;;;;;;24.10;30.60;;;;;;4796060;29;19983;-65
2022/03/30 05:48:50;;;;;;;;;;;24.20;30.50;;;;;;4789946;29;19944;-64
2022/03/30 05:51:18;;;;;;;;;;;24.30;30.50;;;;;;4789472;29;19978;-66
2022/03/30 05:53:45;;;;;;;;;;;24.30;30.30;;;;;;4786587;29;20029;-66
2022/03/30 05:56:12;;;;;;;;;;;24.40;30.30;;;;;;4788260;29;20220;-66
2022/03/30 05:58:39;;;;;;;;;;;24.50;30.20;;;;;;4790755;29;20406;-66
2022/03/30 06:01:06;;;;;;;;;;;24.50;30.00;;;;;;4792881;29;20032;-66
2022/03/30 06:03:37;;;;;;;;;;;24.60;30.10;;;;;;4794550;29;19972;-64
2022/03/30 06:06:06;;;;;;;;;;;24.60;30.30;;;;;;4792577;29;19933;-63
2022/03/30 06:08:34;;;;;;;;;;;24.60;30.20;;;;;;4787905;29;19933;-61
2022/03/30 06:11:01;;;;;;;;;;;24.70;30.30;;;;;;4793779;29;19929;-64
2022/03/30 06:13:28;;;;;;;;;;;24.70;30.30;;;;;;4796519;29;19929;-66
2022/03/30 06:15:55;;;;;;;;;;;24.80;30.40;;;;;;4785855;29;20353;-64
2022/03/30 06:18:23;;;;;;;;;;;24.80;30.40;;;;;;4796984;29;19933;-64
2022/03/30 06:20:50;;;;;;;;;;;24.90;30.50;;;;;;4794544;29;20006;-63
2022/03/30 06:23:17;;;;;;;;;;;24.90;30.60;;;;;;4794892;29;19958;-67
2022/03/30 06:25:44;;;;;;;;;;;25.00;30.60;;;;;;4795751;29;19978;-64
2022/03/30 06:28:11;;;;;;;;;;;25.00;30.60;;;;;;4790734;29;19973;-64
2022/03/30 06:30:39;;;;;;;;;;;25.00;30.40;;;;;;4795018;29;19937;-64
2022/03/30 06:33:06;;;;;;;;;;;25.00;30.20;;;;;;4793249;29;19968;-67
2022/03/30 06:35:33;;;;;;;;;;;25.10;30.20;;;;;;4796383;29;19940;-63
2022/03/30 06:38:02;;;;;;;;;;;25.10;30.10;;;;;;4792448;29;20033;-65
2022/03/30 06:40:29;;;;;;;;;;;25.10;30.00;;;;;;4793087;29;19940;-66
2022/03/30 06:42:59;;;;;;;;;;;25.10;30.00;;;;;;4791323;29;20296;-63
2022/03/30 06:45:27;;;;;;;;;;;25.10;30.00;;;;;;4794070;29;19933;-63
2022/03/30 06:47:54;;;;;;;;;;;25.20;30.00;;;;;;4793543;29;20001;-62
2022/03/30 06:50:21;;;;;;;;;;;25.20;30.00;;;;;;4790911;29;19965;-62
2022/03/30 06:52:49;;;;;;;;;;;25.20;30.00;;;;;;4795345;29;19977;-66
2022/03/30 06:55:16;;;;;;;;;;;25.20;30.00;;;;;;4794163;29;19941;-64
2022/03/30 06:57:43;;;;;;;;;;;25.30;30.00;;;;;;4793579;29;20032;-66
2022/03/30 07:00:12;;;;;;;;;;;25.30;30.10;;;;;;4790000;29;19937;-66
2022/03/30 07:02:39;;;;;;;;;;;25.30;30.10;;;;;;4790112;29;20028;-65
2022/03/30 07:05:06;;;;;;;;;;;25.40;30.20;;;;;;4791299;29;19929;-65
2022/03/30 07:10:24;;;;;;;;;;;25.50;30.20;;;;;;4799561;29;19933;-66
2022/03/30 07:12:52;;;;;;;;;;;25.50;30.10;;;;;;4797990;29;19977;-66
2022/03/30 07:15:20;;;;;;;;;;;25.50;30.20;;;;;;4793816;29;19933;-65
2022/03/30 07:17:49;;;;;;;;;;;25.60;30.20;;;;;;4790599;29;19929;-67
2022/03/30 07:20:16;;;;;;;;;;;25.60;30.30;;;;;;4792639;29;20371;-73
2022/03/30 07:22:44;;;;;;;;;;;25.60;30.60;;;;;;4788319;29;20047;-70
2022/03/30 07:25:12;;;;;;;;;;;25.60;30.60;;;;;;4794877;29;19987;-72
2022/03/30 07:27:40;;;;;;;;;;;25.70;30.60;;;;;;4793415;29;20001;-69
2022/03/30 07:30:09;;;;;;;;;;;25.70;30.50;;;;;;4788125;29;20032;-72
2022/03/30 07:32:36;;;;;;;;;;;25.70;30.30;;;;;;4794471;29;20371;-66
2022/03/30 07:35:04;;;;;;;;;;;25.70;30.10;;;;;;4786904;29;20841;-67
2022/03/30 07:37:31;;;;;;;;;;;25.70;30.10;;;;;;4792013;29;19937;-63
2022/03/30 07:40:04;;;;;;;;;;;25.80;30.20;;;;;;4792647;29;19937;-64
2022/03/30 07:42:31;;;;;;;;;;;25.80;30.10;;;;;;4793933;29;19968;-63
2022/03/30 07:44:58;;;;;;;;;;;25.80;30.10;;;;;;4787746;29;19990;-65
2022/03/30 07:47:25;;;;;;;;;;;25.80;30.10;;;;;;4791106;29;19936;-65
2022/03/30 07:49:53;;;;;;;;;;;25.90;30.20;;;;;;4792055;29;20394;-62
2022/03/30 07:52:20;;;;;;;;;;;25.90;30.10;;;;;;4791460;29;21211;-65
2022/03/30 07:54:48;;;;;;;;;;;25.90;30.00;;;;;;4801919;29;19975;-62
2022/03/30 07:57:15;;;;;;;;;;;26.00;30.20;;;;;;4791860;29;19929;-62
2022/03/30 07:59:42;;;;;;;;;;;26.00;30.20;;;;;;4792790;29;19990;-62
2022/03/30 08:02:10;;;;;;;;;;;26.00;30.10;;;;;;4789615;29;20470;-64
2022/03/30 08:04:38;;;;;;;;;;;26.00;30.00;;;;;;4793201;29;19944;-66
2022/03/30 08:07:05;;;;;;;;;;;26.00;30.00;;;;;;4793238;29;19937;-67
2022/03/30 08:09:32;;;;;;;;;;;26.00;30.00;;;;;;4790381;29;19937;-71
2022/03/30 08:12:00;;;;;;;;;;;26.10;30.00;;;;;;4792129;29;20012;-69
2022/03/30 08:14:27;;;;;;;;;;;26.10;30.00;;;;;;4788599;29;21885;-69
2022/03/30 08:16:54;;;;;;;;;;;26.10;29.90;;;;;;4791402;29;19929;-67
2022/03/30 08:19:22;;;;;;;;;;;26.10;29.80;;;;;;4794253;29;19940;-63
2022/03/30 08:24:39;;;;;;;;;;;26.10;29.80;;;;;;4789761;29;20020;-64
2022/03/30 08:27:06;;;;;;;;;;;26.20;29.80;;;;;;4792586;29;20369;-63
2022/03/30 08:29:34;;;;;;;;;;;26.20;29.70;;;;;;4789074;29;19995;-63
2022/03/30 08:32:00;;;;;;;;;;;26.20;29.70;;;;;;4783118;29;20353;-63
2022/03/30 08:34:28;;;;;;;;;;;26.20;29.70;;;;;;4800869;29;20345;-63
2022/03/30 08:36:55;;;;;;;;;;;26.20;29.60;;;;;;4791207;29;19933;-67
2022/03/30 08:39:22;;;;;;;;;;;26.20;29.70;;;;;;4788091;29;20224;-68
2022/03/30 08:41:49;;;;;;;;;;;26.20;29.70;;;;;;4780007;29;20021;-67
2022/03/30 08:44:17;;;;;;;;;;;26.20;29.70;;;;;;4788913;29;20004;-69
2022/03/30 08:46:45;;;;;;;;;;;26.20;29.60;;;;;;4800164;29;19944;-70
2022/03/30 08:49:15;;;;;;;;;;;26.20;29.60;;;;;;4800719;29;19951;-71
2022/03/30 08:51:45;;;;;;;;;;;26.20;29.70;;;;;;4791554;29;19970;-64
2022/03/30 08:54:13;;;;;;;;;;;26.30;29.90;;;;;;4789730;29;19944;-73
2022/03/30 08:56:40;;;;;;;;;;;26.30;30.00;;;;;;4788308;29;20028;-71
2022/03/30 08:59:08;;;;;;;;;;;26.30;30.00;;;;;;4791938;29;19933;-70
2022/03/30 09:01:36;;;;;;;;;;;26.30;30.30;;;;;;4791324;29;19937;-73
2022/03/30 09:04:04;;;;;;;;;;;26.30;30.30;;;;;;4787653;29;19935;-72
2022/03/30 09:06:46;;;;;;;;;;;26.30;30.10;;;;;;4794271;29;19929;-71
2022/03/30 09:09:15;;;;;;;;;;;26.30;30.30;;;;;;4797002;29;20015;-70
2022/03/30 09:11:55;;;;;;;;;;;26.40;30.30;;;;;;4791202;29;20028;-71
2022/03/30 09:14:23;;;;;;;;;;;26.40;30.20;;;;;;4793212;29;20181;-74
2022/03/30 09:16:51;;;;;;;;;;;26.40;30.40;;;;;;4785142;29;19972;-70
2022/03/30 09:19:20;;;;;;;;;;;26.40;30.00;;;;;;4796938;29;20345;-74
2022/03/30 09:21:49;;;;;;;;;;;26.50;30.00;;;;;;4793987;29;19933;-76
2022/03/30 09:24:18;;;;;;;;;;;26.50;30.00;;;;;;4795789;29;19937;-74
2022/03/30 09:26:47;;;;;;;;;;;26.60;30.00;;;;;;4795766;29;20435;-64
2022/03/30 09:29:14;;;;;;;;;;;26.60;30.00;;;;;;4793995;29;19972;-72
2022/03/30 09:31:42;;;;;;;;;;;26.60;29.90;;;;;;4798696;29;19937;-68
2022/03/30 09:34:09;;;;;;;;;;;26.60;29.80;;;;;;4796033;29;20037;-75
2022/03/30 09:36:39;;;;;;;;;;;26.70;29.70;;;;;;4789593;29;19976;-76
2022/03/30 09:39:07;;;;;;;;;;;26.70;29.60;;;;;;4793719;29;19971;-73
2022/03/30 09:41:47;;;;;;;;;;;26.70;29.60;;;;;;4796222;29;20033;-68
2022/03/30 09:44:14;;;;;;;;;;;26.70;29.30;;;;;;4793646;29;19973;-67
2022/03/30 09:46:52;;;;;;;;;;;26.70;29.70;;;;;;4792271;29;19936;-65
2022/03/30 09:49:31;;;;;;;;;;;26.60;29.50;;;;;;4796220;29;19945;-64
2022/03/30 09:51:59;;;;;;;;;;;26.60;29.60;;;;;;4777404;29;20390;-64
2022/03/30 09:54:37;;;;;;;;;;;26.60;29.50;;;;;;4792538;29;20746;-64
2022/03/30 09:57:16;;;;;;;;;;;26.60;29.40;;;;;;4797246;29;19955;-64
2022/03/30 10:00:03;;;;;;;;;;;26.50;29.60;;;;;;4798739;29;19941;-65
2022/03/30 10:02:32;;;;;;;;;;;26.50;29.80;;;;;;4797121;29;19929;-62
2022/03/30 10:05:00;;;;;;;;;;;26.50;29.80;;;;;;4795450;29;20318;-64
2022/03/30 10:07:28;;;;;;;;;;;26.50;29.70;;;;;;4790972;29;19975;-62
2022/03/30 10:09:56;;;;;;;;;;;26.50;29.70;;;;;;4792596;29;20363;-64
2022/03/30 10:12:24;;;;;;;;;;;26.50;29.20;;;;;;4798371;29;19985;-64
2022/03/30 10:14:51;;;;;;;;;;;26.40;29.50;;;;;;4799538;29;20306;-66
2022/03/30 10:17:19;;;;;;;;;;;26.40;28.70;;;;;;4798484;29;19929;-65
2022/03/30 10:19:46;;;;;;;;;;;26.40;29.00;;;;;;4795528;29;19977;-65
2022/03/30 10:22:33;;;;;;;;;;;26.30;29.30;;;;;;4797522;29;19936;-65
2022/03/30 10:25:20;;;;;;;;;;;26.30;29.40;;;;;;4790364;29;19951;-65
2022/03/30 10:28:07;;;;;;;;;;;26.30;29.40;;;;;;4796043;29;19980;-65
2022/03/30 10:30:34;;;;;;;;;;;26.30;29.80;;;;;;4794323;29;19966;-66
2022/03/30 10:33:03;;;;;;;;;;;26.30;29.60;;;;;;4797943;29;20390;-66
2022/03/30 10:35:46;;;;;;;;;;;26.30;29.90;;;;;;4793076;29;20341;-66
2022/03/30 10:38:14;;;;;;;;;;;26.40;30.00;;;;;;4793813;29;19979;-64
2022/03/30 10:40:42;;;;;;;;;;;26.30;29.90;;;;;;4798966;29;19986;-64
2022/03/30 10:43:23;;;;;;;;;;;26.30;29.70;;;;;;4797625;29;19930;-64
2022/03/30 10:45:57;;;;;;;;;;;26.30;29.90;;;;;;4796710;29;19936;-64
2022/03/30 10:48:38;;;;;;;;;;;26.30;29.80;;;;;;4797736;29;19989;-63
2022/03/30 10:51:17;;;;;;;;;;;26.30;29.60;;;;;;4795018;29;19929;-63
2022/03/30 10:53:51;;;;;;;;;;;26.40;29.90;;;;;;4795349;29;19930;-64
2022/03/30 10:56:28;;;;;;;;;;;26.40;29.80;;;;;;4792257;29;19936;-64
2022/03/30 10:59:06;;;;;;;;;;;26.40;29.50;;;;;;4792664;29;19937;-66
2022/03/30 11:01:34;;;;;;;;;;;26.40;29.60;;;;;;4792639;29;20356;-67
2022/03/30 11:04:03;;;;;;;;;;;26.40;29.90;;;;;;4791197;29;19944;-67
2022/03/30 11:06:31;;;;;;;;;;;26.40;30.00;;;;;;4795130;29;19986;-67
2022/03/30 11:08:59;;;;;;;;;;;26.40;29.80;;;;;;4794342;29;19940;-67
2022/03/30 11:11:35;;;;;;;;;;;26.50;29.70;;;;;;4790693;29;20834;-65
2022/03/30 11:14:23;;;;;;;;;;;26.50;29.70;;;;;;4794256;29;19980;-65
2022/03/30 11:16:51;;;;;;;;;;;26.50;29.50;;;;;;4797608;29;19982;-64
2022/03/30 11:19:18;;;;;;;;;;;26.50;29.60;;;;;;4794098;29;19929;-65
2022/03/30 11:22:05;;;;;;;;;;;26.50;29.50;;;;;;4796596;29;19987;-62
2022/03/30 11:24:33;;;;;;;;;;;26.60;29.70;;;;;;4796542;29;20709;-65
2022/03/30 11:27:20;;;;;;;;;;;26.60;29.60;;;;;;4796383;29;19937;-66
2022/03/30 11:29:52;;;;;;;;;;;26.60;29.60;;;;;;4795596;29;20756;-63
2022/03/30 11:32:39;;;;;;;;;;;26.60;29.60;;;;;;4792541;29;19941;-65
2022/03/30 11:35:12;;;;;;;;;;;26.60;29.60;;;;;;4808284;29;20302;-65
2022/03/30 11:37:41;;;;;;;;;;;26.60;29.40;;;;;;4805867;29;20456;-66
2022/03/30 11:40:11;;;;;;;;;;;26.60;29.40;;;;;;4790833;29;20391;-62
2022/03/30 11:42:46;;;;;;;;;;;26.60;29.40;;;;;;4783074;29;20370;-71
2022/03/30 11:45:21;;;;;;;;;;;26.60;29.50;;;;;;4793384;29;20682;-68
2022/03/30 11:48:03;;;;;;;;;;;26.60;29.50;;;;;;4795595;29;19929;-69
2022/03/30 11:50:34;;;;;;;;;;;26.50;29.40;;;;;;4790984;29;19979;-69
2022/03/30 11:53:06;;;;;;;;;;;26.50;29.40;;;;;;4792461;29;19986;-70
2022/03/30 11:55:49;;;;;;;;;;;26.50;29.40;;;;;;4793217;29;20120;-68
2022/03/30 11:58:34;;;;;;;;;;;26.50;29.30;;;;;;4792185;29;20248;-67
2022/03/30 12:01:05;;;;;;;;;;;26.50;29.30;;;;;;4790467;29;19933;-68
2022/03/30 12:03:34;;;;;;;;;;;26.50;29.40;;;;;;4794319;29;21337;-69
2022/03/30 12:06:03;;;;;;;;;;;26.50;29.50;;;;;;4794319;29;20023;-68
2022/03/30 12:08:44;;;;;;;;;;;26.50;29.50;;;;;;4790493;29;19944;-70
2022/03/30 12:11:11;;;;;;;;;;;26.50;29.70;;;;;;4793095;29;19976;-67
2022/03/30 12:13:38;;;;;;;;;;;26.50;29.60;;;;;;4790484;29;19985;-68
2022/03/30 12:16:09;;;;;;;;;;;26.50;29.80;;;;;;4792974;29;19994;-70
2022/03/30 12:18:47;;;;;;;;;;;26.50;29.90;;;;;;4791438;29;19998;-69
2022/03/30 12:21:17;;;;;;;;;;;26.50;29.90;;;;;;4792378;29;19948;-70
2022/03/30 12:23:55;;;;;;;;;;;26.50;29.90;;;;;;4786484;29;19945;-70
2022/03/30 12:26:44;;;;;;;;;;;26.50;29.80;;;;;;4791969;29;20591;-65
2022/03/30 12:29:14;;;;;;;;;;;26.50;29.70;;;;;;4795567;29;19933;-67
2022/03/30 12:31:47;;;;;;;;;;;26.50;29.80;;;;;;4792255;29;20043;-65
2022/03/30 12:34:15;;;;;;;;;;;26.50;29.80;;;;;;4793137;29;20306;-68
2022/03/30 12:36:45;;;;;;;;;;;26.50;29.80;;;;;;4807647;29;20383;-67
2022/03/30 12:39:16;;;;;;;;;;;26.50;29.80;;;;;;4795742;29;19933;-66
2022/03/30 12:41:44;;;;;;;;;;;26.50;29.80;;;;;;4795622;29;19937;-67
2022/03/30 12:44:11;;;;;;;;;;;26.60;29.80;;;;;;4795989;29;20001;-70
2022/03/30 12:46:40;;;;;;;;;;;26.50;29.60;;;;;;4790822;29;19937;-69
2022/03/30 12:49:08;;;;;;;;;;;26.50;29.70;;;;;;4793849;29;19943;-68
2022/03/30 12:51:36;;;;;;;;;;;26.50;29.50;;;;;;4791945;29;20943;-67
2022/03/30 12:54:04;;;;;;;;;;;26.50;29.60;;;;;;4793081;29;19983;-66
2022/03/30 12:56:31;;;;;;;;;;;26.50;29.60;;;;;;4794102;29;20009;-64
2022/03/30 12:59:04;;;;;;;;;;;26.50;29.60;;;;;;4806449;29;19935;-65
2022/03/30 13:01:34;;;;;;;;;;;26.50;29.70;;;;;;4792588;29;19982;-68
2022/03/30 13:04:03;;;;;;;;;;;26.50;29.60;;;;;;4791019;29;19943;-65
2022/03/30 13:06:30;;;;;;;;;;;26.50;29.60;;;;;;4793427;29;19937;-69
2022/03/30 13:09:12;;;;;;;;;;;26.60;29.70;;;;;;4792654;29;19963;-66
2022/03/30 13:11:44;;;;;;;;;;;26.60;29.80;;;;;;4791475;29;19941;-66
2022/03/30 13:14:12;;;;;;;;;;;26.60;29.80;;;;;;4792871;29;19981;-66
2022/03/30 13:16:38;;;;;;;;;;;26.70;30.00;;;;;;4787989;29;20706;-64
2022/03/30 13:19:07;;;;;;;;;;;26.70;30.00;;;;;;4790834;29;19933;-69
2022/03/30 13:21:38;;;;;;;;;;;26.70;30.00;;;;;;4793373;29;19929;-69
2022/03/30 13:24:15;;;;;;;;;;;26.70;30.00;;;;;;4798174;29;19937;-68
2022/03/30 13:26:43;;;;;;;;;;;26.70;30.00;;;;;;4788301;29;19991;-68
2022/03/30 13:32:07;;;;;;;;;;;26.70;30.00;;;;;;4788136;30;19930;-68
2022/03/30 13:34:35;;;;;;;;;;;26.70;30.10;;;;;;4790366;29;19941;-66
2022/03/30 13:37:02;;;;;;;;;;;26.70;30.00;;;;;;4794093;29;19990;-68
2022/03/30 13:39:29;;;;;;;;;;;26.60;29.90;;;;;;4793202;29;19933;-70
2022/03/30 13:41:57;;;;;;;;;;;26.60;30.00;;;;;;4795036;29;20288;-68
2022/03/30 13:44:25;;;;;;;;;;;26.60;29.90;;;;;;4793500;29;20299;-68
2022/03/30 13:46:52;;;;;;;;;;;26.60;29.90;;;;;;4807819;29;19933;-69
2022/03/30 13:49:41;;;;;;;;;;;26.60;30.00;;;;;;4787896;29;20028;-67
2022/03/30 13:52:07;;;;;;;;;;;26.50;30.00;;;;;;4790476;29;20471;-67
2022/03/30 13:54:34;;;;;;;;;;;26.60;30.00;;;;;;4792179;29;19933;-66
2022/03/30 13:57:01;;;;;;;;;;;26.60;30.00;;;;;;4794643;29;19937;-66
2022/03/30 13:59:28;;;;;;;;;;;26.50;30.00;;;;;;4791908;29;20364;-69
2022/03/30 14:01:55;;;;;;;;;;;26.50;29.90;;;;;;4794372;29;19941;-69
2022/03/30 14:04:22;;;;;;;;;;;26.50;30.00;;;;;;4792795;29;19937;-68
2022/03/30 14:06:49;;;;;;;;;;;26.50;30.00;;;;;;4795634;29;20038;-69
2022/03/30 14:09:16;;;;;;;;;;;26.50;29.80;;;;;;4794688;29;19933;-69
2022/03/30 14:11:43;;;;;;;;;;;26.50;29.80;;;;;;4798111;29;19954;-69
2022/03/30 14:14:11;;;;;;;;;;;26.50;29.80;;;;;;4798977;29;19929;-67
2022/03/30 14:16:38;;;;;;;;;;;26.60;29.90;;;;;;4794315;29;19929;-61
2022/03/30 14:19:05;;;;;;;;;;;26.50;29.80;;;;;;4797208;29;19936;-62
2022/03/30 14:21:33;;;;;;;;;;;26.60;29.90;;;;;;4792451;29;20007;-62
2022/03/30 14:24:07;;;;;;;;;;;26.50;29.80;;;;;;4797490;29;19929;-67
2022/03/30 14:26:34;;;;;;;;;;;26.60;29.90;;;;;;4796624;29;20158;-67
2022/03/30 14:29:01;;;;;;;;;;;26.60;29.80;;;;;;4797452;29;19933;-68
2022/03/30 14:31:28;;;;;;;;;;;26.50;29.70;;;;;;4795174;29;19976;-64
2022/03/30 14:33:55;;;;;;;;;;;26.50;29.70;;;;;;4798187;29;20350;-65
2022/03/30 14:36:22;;;;;;;;;;;26.50;29.70;;;;;;4808710;29;19933;-65
2022/03/30 14:38:49;;;;;;;;;;;26.50;29.70;;;;;;4799250;29;20686;-64